createdAt,value
2022-12-25T00:01:49.319Z,9.72
2022-12-25T00:04:17.119Z,9.83
2022-12-25T00:06:45.045Z,10.23
2022-12-25T00:09:12.877Z,10.37
2022-12-25T00:11:40.629Z,10.35
2022-12-25T00:14:10.123Z,10.33
2022-12-25T00:16:38.046Z,10.20
2022-12-25T00:19:06.052Z,10.41
2022-12-25T00:21:34.162Z,10.27
2022-12-25T00:24:03.458Z,10.34
2022-12-25T00:26:31.235Z,10.29
2022-12-25T00:28:59.607Z,10.39
2022-12-25T00:31:28.856Z,10.29
2022-12-25T00:33:56.781Z,10.21
2022-12-25T00:36:25.030Z,10.37
2022-12-25T00:38:52.821Z,10.46
2022-12-25T00:41:43.106Z,10.44
2022-12-25T00:44:13.775Z,10.45
2022-12-25T00:46:43.813Z,10.49
2022-12-25T00:49:12.619Z,10.48
2022-12-25T00:51:40.795Z,10.51
2022-12-25T00:54:09.007Z,10.40
2022-12-25T00:56:36.800Z,10.53
2022-12-25T00:59:05.017Z,10.34
2022-12-25T01:01:34.086Z,10.51
2022-12-25T01:04:03.376Z,10.53
2022-12-25T01:06:31.356Z,10.44
2022-12-25T01:09:17.024Z,10.25
2022-12-25T01:11:45.489Z,10.50
2022-12-25T01:14:13.701Z,10.45
2022-12-25T01:16:41.747Z,10.55
2022-12-25T01:19:11.731Z,10.57
2022-12-25T01:21:40.071Z,10.49
2022-12-25T01:24:08.435Z,10.47
2022-12-25T01:26:36.181Z,10.65
2022-12-25T01:29:04.268Z,10.63
2022-12-25T01:31:32.060Z,10.48
2022-12-25T01:33:59.870Z,10.64
2022-12-25T01:36:28.998Z,10.51
2022-12-25T01:38:56.818Z,10.66
2022-12-25T01:41:26.245Z,10.68
2022-12-25T01:44:00.296Z,10.70
2022-12-25T01:46:28.407Z,10.60
2022-12-25T01:48:58.983Z,10.67
2022-12-25T01:51:31.288Z,10.61
2022-12-25T01:54:04.592Z,10.67
2022-12-25T01:56:34.709Z,10.68
2022-12-25T01:59:03.873Z,10.56
2022-12-25T02:01:31.773Z,10.64
2022-12-25T02:04:07.742Z,10.62
2022-12-25T02:06:37.153Z,9.98
2022-12-25T02:09:05.295Z,10.47
2022-12-25T02:11:50.674Z,10.64
2022-12-25T02:14:18.495Z,10.60
2022-12-25T02:16:58.032Z,10.66
2022-12-25T02:19:46.998Z,10.67
2022-12-25T02:22:28.347Z,10.66
2022-12-25T02:25:09.041Z,10.65
2022-12-25T02:28:06.755Z,10.15
2022-12-25T02:30:41.708Z,10.70
2022-12-25T02:33:33.075Z,10.62
2022-12-25T02:36:06.716Z,10.74
2022-12-25T02:38:39.124Z,10.75
2022-12-25T02:41:10.315Z,10.78
2022-12-25T02:43:59.790Z,10.79
2022-12-25T02:46:48.007Z,10.79
2022-12-25T02:49:37.381Z,10.78
2022-12-25T02:52:27.671Z,10.78
2022-12-25T02:55:18.531Z,10.79
2022-12-25T02:58:07.141Z,10.81
2022-12-25T03:00:58.402Z,10.81
2022-12-25T03:03:49.244Z,10.64
2022-12-25T03:06:37.602Z,10.82
2022-12-25T03:09:21.147Z,10.84
2022-12-25T03:11:55.734Z,10.83
2022-12-25T03:14:41.448Z,10.82
2022-12-25T03:17:10.749Z,10.86
2022-12-25T03:19:52.719Z,10.88
2022-12-25T03:22:42.787Z,10.86
2022-12-25T03:25:28.087Z,10.90
2022-12-25T03:27:58.241Z,10.71
2022-12-25T03:30:54.959Z,10.83
2022-12-25T03:33:46.940Z,10.89
2022-12-25T03:36:25.087Z,10.90
2022-12-25T03:39:17.477Z,10.79
2022-12-25T03:42:07.723Z,10.88
2022-12-25T03:44:59.939Z,10.91
2022-12-25T03:47:47.915Z,10.91
2022-12-25T03:50:38.364Z,10.89
2022-12-25T03:53:28.839Z,10.55
2022-12-25T03:56:15.539Z,10.88
2022-12-25T03:59:10.055Z,10.76
2022-12-25T04:01:55.281Z,10.82
2022-12-25T04:04:40.586Z,10.87
2022-12-25T04:07:35.582Z,10.90
2022-12-25T04:10:21.141Z,10.88
2022-12-25T04:13:06.332Z,10.91
2022-12-25T04:15:51.607Z,10.92
2022-12-25T04:18:36.766Z,10.95
2022-12-25T04:21:22.761Z,10.86
2022-12-25T04:24:09.065Z,10.96
2022-12-25T04:26:59.548Z,10.88
2022-12-25T04:29:45.046Z,10.95
2022-12-25T04:32:30.276Z,10.89
2022-12-25T04:35:15.634Z,10.96
2022-12-25T04:37:43.394Z,10.99
2022-12-25T04:40:12.974Z,10.71
2022-12-25T04:42:40.964Z,11.00
2022-12-25T04:45:10.111Z,11.00
2022-12-25T04:47:37.981Z,11.00
2022-12-25T04:50:06.750Z,11.03
2022-12-25T04:52:37.036Z,11.03
2022-12-25T04:55:06.050Z,11.01
2022-12-25T04:57:35.604Z,10.97
2022-12-25T05:00:03.689Z,10.93
2022-12-25T05:02:31.593Z,10.95
2022-12-25T05:04:59.538Z,10.92
2022-12-25T05:07:27.360Z,10.94
2022-12-25T05:09:55.178Z,10.90
2022-12-25T05:12:22.985Z,10.88
2022-12-25T05:14:52.189Z,10.94
2022-12-25T05:17:19.969Z,10.93
2022-12-25T05:19:47.668Z,10.91
2022-12-25T05:22:15.431Z,10.91
2022-12-25T05:24:43.219Z,10.97
2022-12-25T05:27:10.954Z,10.96
2022-12-25T05:29:38.669Z,10.93
2022-12-25T05:32:07.885Z,10.92
2022-12-25T05:34:35.606Z,10.85
2022-12-25T05:37:03.469Z,10.87
2022-12-25T05:39:31.222Z,10.83
2022-12-25T05:41:59.003Z,10.82
2022-12-25T05:44:26.737Z,10.78
2022-12-25T05:46:54.506Z,10.82
2022-12-25T05:49:23.775Z,10.85
2022-12-25T05:51:51.554Z,10.85
2022-12-25T05:54:19.286Z,10.92
2022-12-25T05:56:47.124Z,10.92
2022-12-25T05:59:14.851Z,10.96
2022-12-25T06:01:42.617Z,10.97
2022-12-25T06:04:13.015Z,10.96
2022-12-25T06:06:44.182Z,10.94
2022-12-25T06:09:13.412Z,10.92
2022-12-25T06:11:41.546Z,10.85
2022-12-25T06:14:12.329Z,10.88
2022-12-25T06:16:40.289Z,10.91
2022-12-25T06:19:08.559Z,10.82
2022-12-25T06:21:36.345Z,10.85
2022-12-25T06:24:05.928Z,10.90
2022-12-25T06:26:33.887Z,10.86
2022-12-25T06:29:01.669Z,10.76
2022-12-25T06:31:29.612Z,10.92
2022-12-25T06:33:57.480Z,10.85
2022-12-25T06:36:29.307Z,10.96
2022-12-25T06:39:02.962Z,10.97
2022-12-25T06:41:32.537Z,10.98
2022-12-25T06:44:02.400Z,10.94
2022-12-25T06:46:31.783Z,10.95
2022-12-25T06:49:00.410Z,10.94
2022-12-25T06:51:29.871Z,10.88
2022-12-25T06:53:57.740Z,10.84
2022-12-25T06:56:29.702Z,10.32
2022-12-25T06:59:01.194Z,10.87
2022-12-25T07:01:31.163Z,10.90
2022-12-25T07:04:07.822Z,10.91
2022-12-25T07:06:35.710Z,10.95
2022-12-25T07:09:03.878Z,10.89
2022-12-25T07:11:31.700Z,10.96
2022-12-25T07:14:00.997Z,10.97
2022-12-25T07:16:31.532Z,10.74
2022-12-25T07:19:00.500Z,10.95
2022-12-25T07:21:28.576Z,10.87
2022-12-25T07:23:56.348Z,10.94
2022-12-25T07:26:24.097Z,10.96
2022-12-25T07:28:51.827Z,10.93
2022-12-25T07:31:21.100Z,10.89
2022-12-25T07:33:49.011Z,10.85
2022-12-25T07:36:16.971Z,10.89
2022-12-25T07:38:45.254Z,10.92
2022-12-25T07:41:13.913Z,10.91
2022-12-25T07:43:42.447Z,10.44
2022-12-25T07:46:11.267Z,10.94
2022-12-25T07:48:40.447Z,10.82
2022-12-25T07:51:12.037Z,10.96
2022-12-25T07:53:40.187Z,10.48
2022-12-25T07:56:11.322Z,10.91
2022-12-25T07:58:39.695Z,10.89
2022-12-25T08:01:09.803Z,10.96
2022-12-25T08:03:38.443Z,11.01
2022-12-25T08:06:10.222Z,11.04
2022-12-25T08:08:40.098Z,10.97
2022-12-25T08:11:08.705Z,11.04
2022-12-25T08:13:36.969Z,11.02
2022-12-25T08:16:07.846Z,11.05
2022-12-25T08:18:36.300Z,11.03
2022-12-25T08:21:05.447Z,11.09
2022-12-25T08:23:37.043Z,11.12
2022-12-25T08:26:08.288Z,11.12
2022-12-25T08:28:36.976Z,11.13
2022-12-25T08:31:10.331Z,10.99
2022-12-25T08:33:38.763Z,11.08
2022-12-25T08:36:08.423Z,11.10
2022-12-25T08:38:38.416Z,11.11
2022-12-25T08:41:06.557Z,11.12
2022-12-25T08:43:34.297Z,11.13
2022-12-25T08:46:02.169Z,10.81
2022-12-25T08:48:30.035Z,11.15
2022-12-25T08:50:58.382Z,11.12
2022-12-25T08:53:26.334Z,10.91
2022-12-25T08:56:00.277Z,11.16
2022-12-25T08:58:28.519Z,11.25
2022-12-25T09:00:56.626Z,11.25
2022-12-25T09:03:25.284Z,11.20
2022-12-25T09:05:53.569Z,11.24
2022-12-25T09:08:22.299Z,11.22
2022-12-25T09:10:50.379Z,11.20
2022-12-25T09:13:19.541Z,11.22
2022-12-25T09:15:47.380Z,11.23
2022-12-25T09:18:15.186Z,11.23
2022-12-25T09:20:42.907Z,11.19
2022-12-25T09:23:13.997Z,11.17
2022-12-25T09:25:42.348Z,11.16
2022-12-25T09:28:10.183Z,10.98
2022-12-25T09:30:39.573Z,11.12
2022-12-25T09:33:07.540Z,11.20
2022-12-25T09:35:35.673Z,11.25
2022-12-25T09:38:03.529Z,11.23
2022-12-25T09:40:32.998Z,11.20
2022-12-25T09:43:01.861Z,11.21
2022-12-25T09:45:33.912Z,11.24
2022-12-25T09:48:03.396Z,11.22
2022-12-25T09:50:40.840Z,11.16
2022-12-25T09:53:14.014Z,11.14
2022-12-25T09:55:47.229Z,11.21
2022-12-25T09:58:15.010Z,11.19
2022-12-25T10:00:48.269Z,11.20
2022-12-25T10:03:33.663Z,11.22
2022-12-25T10:06:18.510Z,11.20
2022-12-25T10:09:04.093Z,11.11
2022-12-25T10:11:47.906Z,11.22
2022-12-25T10:14:26.715Z,11.25
2022-12-25T10:17:12.956Z,11.26
2022-12-25T10:19:50.028Z,11.25
2022-12-25T10:22:25.009Z,11.17
2022-12-25T10:24:55.748Z,11.24
2022-12-25T10:27:33.827Z,11.25
2022-12-25T10:30:02.841Z,11.26
2022-12-25T10:32:30.751Z,11.26
2022-12-25T10:34:59.957Z,10.96
2022-12-25T10:37:27.719Z,11.16
2022-12-25T10:39:55.422Z,11.28
2022-12-25T10:42:32.023Z,11.27
2022-12-25T10:45:01.365Z,11.27
2022-12-25T10:47:32.080Z,11.27
2022-12-25T10:50:08.625Z,11.21
2022-12-25T10:52:36.829Z,11.23
2022-12-25T10:55:24.954Z,11.22
2022-12-25T10:57:57.731Z,11.27
2022-12-25T11:00:27.667Z,11.26
2022-12-25T11:02:56.142Z,11.30
2022-12-25T11:05:29.232Z,11.31
2022-12-25T11:07:59.520Z,11.30
2022-12-25T11:10:33.327Z,11.26
2022-12-25T11:13:02.802Z,11.26
2022-12-25T11:15:37.907Z,11.25
2022-12-25T11:18:18.594Z,11.26
2022-12-25T11:20:51.370Z,11.26
2022-12-25T11:23:21.199Z,11.21
2022-12-25T11:25:57.173Z,11.05
2022-12-25T11:28:26.319Z,11.30
2022-12-25T11:30:58.857Z,11.29
2022-12-25T11:33:33.855Z,11.26
2022-12-25T11:36:09.859Z,11.37
2022-12-25T11:38:37.586Z,11.41
2022-12-25T11:41:06.996Z,10.95
2022-12-25T11:43:40.181Z,11.38
2022-12-25T11:46:15.619Z,11.17
2022-12-25T11:48:48.198Z,11.40
2022-12-25T11:51:18.999Z,11.39
2022-12-25T11:53:52.761Z,11.39
2022-12-25T11:56:24.015Z,11.37
2022-12-25T11:58:54.581Z,11.31
2022-12-25T12:01:30.398Z,11.31
2022-12-25T12:04:00.612Z,11.36
2022-12-25T12:06:37.474Z,11.21
2022-12-25T12:09:27.986Z,11.38
2022-12-25T12:12:02.273Z,11.43
2022-12-25T12:14:44.399Z,11.31
2022-12-25T12:17:14.236Z,11.45
2022-12-25T12:19:42.037Z,11.41
2022-12-25T12:22:20.092Z,11.48
2022-12-25T12:24:54.372Z,11.48
2022-12-25T12:27:27.713Z,11.47
2022-12-25T12:29:58.402Z,11.48
2022-12-25T12:32:38.687Z,11.47
2022-12-25T12:35:10.559Z,11.40
2022-12-25T12:37:41.362Z,11.39
2022-12-25T12:40:26.489Z,11.47
2022-12-25T12:42:54.340Z,11.31
2022-12-25T12:45:28.247Z,11.32
2022-12-25T12:47:56.993Z,11.55
2022-12-25T12:50:34.752Z,11.57
2022-12-25T12:53:31.220Z,11.58
2022-12-25T12:56:10.784Z,11.62
2022-12-25T12:58:45.198Z,11.61
2022-12-25T13:01:29.995Z,11.61
2022-12-25T13:04:24.572Z,11.64
2022-12-25T13:06:59.256Z,11.66
2022-12-25T13:09:39.523Z,11.67
2022-12-25T13:12:08.965Z,11.62
2022-12-25T13:14:37.938Z,11.59
2022-12-25T13:17:08.850Z,11.72
2022-12-25T13:19:38.183Z,11.72
2022-12-25T13:22:07.504Z,11.56
2022-12-25T13:24:38.195Z,11.74
2022-12-25T13:27:23.785Z,11.76
2022-12-25T13:29:51.693Z,11.82
2022-12-25T13:32:24.320Z,11.83
2022-12-25T13:34:53.059Z,11.85
2022-12-25T13:37:22.942Z,11.87
2022-12-25T13:39:55.767Z,11.87
2022-12-25T13:42:27.172Z,11.86
2022-12-25T13:44:56.919Z,11.91
2022-12-25T13:47:28.018Z,11.92
2022-12-25T13:49:57.976Z,11.95
2022-12-25T13:52:33.320Z,11.98
2022-12-25T13:55:04.120Z,11.97
2022-12-25T13:57:36.052Z,11.98
2022-12-25T14:00:05.436Z,11.90
2022-12-25T14:02:37.169Z,12.02
2022-12-25T14:05:05.749Z,12.00
2022-12-25T14:07:34.763Z,12.01
2022-12-25T14:10:05.122Z,11.55
2022-12-25T14:12:33.993Z,12.06
2022-12-25T14:15:02.204Z,12.05
2022-12-25T14:17:30.132Z,11.98
2022-12-25T14:20:06.027Z,12.04
2022-12-25T14:22:38.346Z,12.07
2022-12-25T14:25:15.698Z,12.08
2022-12-25T14:27:50.292Z,12.09
2022-12-25T14:30:19.378Z,11.80
2022-12-25T14:32:51.791Z,12.09
2022-12-25T14:35:23.480Z,12.10
2022-12-25T14:37:57.156Z,12.12
2022-12-25T14:40:30.400Z,12.11
2022-12-25T14:43:00.942Z,12.12
2022-12-25T14:45:32.144Z,12.13
2022-12-25T14:48:04.146Z,12.15
2022-12-25T14:50:36.466Z,12.04
2022-12-25T14:53:04.585Z,12.12
2022-12-25T14:55:33.798Z,12.17
2022-12-25T14:58:05.523Z,12.20
2022-12-25T15:00:36.364Z,12.19
2022-12-25T15:03:07.026Z,12.20
2022-12-25T15:05:37.012Z,12.19
2022-12-25T15:08:22.263Z,12.21
2022-12-25T15:11:01.834Z,12.07
2022-12-25T15:13:31.808Z,12.19
2022-12-25T15:16:04.307Z,12.22
2022-12-25T15:18:37.681Z,12.10
2022-12-25T15:21:05.696Z,12.13
2022-12-25T15:23:33.545Z,12.23
2022-12-25T15:26:02.704Z,11.86
2022-12-25T15:28:30.592Z,12.19
2022-12-25T15:30:58.444Z,12.15
2022-12-25T15:33:26.212Z,12.16
2022-12-25T15:35:54.236Z,11.97
2022-12-25T15:38:22.012Z,11.88
2022-12-25T15:40:49.808Z,12.19
2022-12-25T15:43:41.377Z,12.04
2022-12-25T15:46:10.491Z,12.22
2022-12-25T15:48:38.287Z,12.23
2022-12-25T15:51:06.394Z,12.22
2022-12-25T15:53:34.182Z,12.23
2022-12-25T15:56:01.885Z,12.19
2022-12-25T15:58:31.096Z,12.25
2022-12-25T16:00:58.851Z,12.25
2022-12-25T16:03:26.905Z,12.07
2022-12-25T16:05:55.360Z,12.20
2022-12-25T16:08:23.685Z,11.77
2022-12-25T16:10:53.243Z,11.67
2022-12-25T16:13:21.224Z,12.18
2022-12-25T16:15:50.324Z,12.15
2022-12-25T16:18:18.072Z,12.20
2022-12-25T16:20:45.884Z,12.19
2022-12-25T16:23:13.759Z,12.18
2022-12-25T16:25:41.497Z,11.78
2022-12-25T16:28:10.322Z,12.22
2022-12-25T16:30:39.737Z,12.17
2022-12-25T16:33:10.820Z,12.22
2022-12-25T16:35:38.731Z,12.22
2022-12-25T16:38:06.764Z,12.29
2022-12-25T16:40:35.107Z,12.31
2022-12-25T16:43:02.889Z,12.35
2022-12-25T16:45:31.107Z,12.37
2022-12-25T16:47:58.902Z,12.37
2022-12-25T16:50:28.056Z,12.38
2022-12-25T16:52:55.894Z,12.40
2022-12-25T16:55:29.452Z,12.31
2022-12-25T16:57:58.296Z,12.45
2022-12-25T17:00:26.451Z,12.45
2022-12-25T17:02:54.684Z,12.22
2022-12-25T17:05:22.547Z,12.48
2022-12-25T17:07:51.960Z,12.49
2022-12-25T17:10:21.315Z,12.47
2022-12-25T17:12:49.255Z,12.38
2022-12-25T17:15:17.265Z,12.50
2022-12-25T17:17:45.063Z,12.49
2022-12-25T17:20:13.611Z,12.44
2022-12-25T17:22:41.370Z,12.11
2022-12-25T17:25:11.126Z,12.33
2022-12-25T17:27:38.840Z,12.47
2022-12-25T17:30:08.081Z,12.44
2022-12-25T17:32:36.060Z,12.48
2022-12-25T17:35:03.827Z,12.49
2022-12-25T17:37:32.220Z,12.49
2022-12-25T17:39:59.976Z,12.51
2022-12-25T17:42:29.181Z,12.54
2022-12-25T17:44:57.054Z,12.53
2022-12-25T17:47:24.872Z,12.56
2022-12-25T17:49:52.640Z,12.56
2022-12-25T17:52:20.435Z,12.57
2022-12-25T17:54:48.321Z,12.40
2022-12-25T17:57:16.067Z,12.61
2022-12-25T17:59:45.153Z,12.63
2022-12-25T18:02:13.044Z,12.58
2022-12-25T18:04:40.904Z,12.60
2022-12-25T18:07:08.700Z,12.57
2022-12-25T18:09:37.214Z,12.57
2022-12-25T18:12:05.484Z,12.60
2022-12-25T18:14:33.257Z,12.56
2022-12-25T18:17:03.457Z,12.62
2022-12-25T18:19:31.308Z,12.63
2022-12-25T18:21:59.044Z,12.65
2022-12-25T18:24:26.797Z,12.65
2022-12-25T18:26:54.655Z,12.62
2022-12-25T18:29:22.444Z,12.64
2022-12-25T18:31:50.320Z,12.59
2022-12-25T18:34:19.695Z,12.48
2022-12-25T18:36:47.663Z,12.59
2022-12-25T18:39:15.711Z,12.57
2022-12-25T18:41:58.014Z,12.55
2022-12-25T18:44:25.737Z,12.59
2022-12-25T18:46:53.828Z,12.53
2022-12-25T18:49:23.000Z,12.61
2022-12-25T18:51:50.787Z,12.34
2022-12-25T18:54:19.238Z,12.62
2022-12-25T18:56:52.124Z,12.66
2022-12-25T18:59:21.074Z,12.66
2022-12-25T19:01:49.036Z,12.64
2022-12-25T19:04:17.129Z,12.62
2022-12-25T19:06:46.384Z,12.54
2022-12-25T19:09:14.324Z,12.58
2022-12-25T19:11:46.448Z,12.57
2022-12-25T19:14:15.231Z,12.50
2022-12-25T19:16:43.217Z,12.56
2022-12-25T19:19:11.222Z,12.60
2022-12-25T19:21:39.167Z,12.62
2022-12-25T19:24:08.687Z,12.55
2022-12-25T19:26:37.607Z,12.58
2022-12-25T19:29:05.886Z,12.57
2022-12-25T19:31:33.709Z,12.50
2022-12-25T19:34:01.759Z,12.50
2022-12-25T19:36:29.692Z,12.56
2022-12-25T19:38:57.516Z,12.52
2022-12-25T19:41:26.636Z,12.24
2022-12-25T19:43:54.422Z,12.64
2022-12-25T19:46:24.684Z,12.64
2022-12-25T19:48:53.173Z,12.65
2022-12-25T19:51:23.636Z,12.67
2022-12-25T19:53:52.185Z,12.66
2022-12-25T19:56:20.619Z,12.63
2022-12-25T19:58:49.751Z,12.66
2022-12-25T20:01:20.294Z,12.65
2022-12-25T20:03:48.407Z,12.67
2022-12-25T20:06:19.747Z,12.69
2022-12-25T20:08:48.148Z,12.68
2022-12-25T20:11:16.487Z,12.68
2022-12-25T20:13:44.403Z,12.72
2022-12-25T20:16:13.946Z,12.70
2022-12-25T20:18:42.137Z,12.72
2022-12-25T20:21:14.183Z,12.58
2022-12-25T20:23:42.648Z,12.64
2022-12-25T20:26:11.768Z,12.67
2022-12-25T20:28:40.229Z,12.58
2022-12-25T20:31:09.421Z,12.56
2022-12-25T20:33:38.669Z,12.66
2022-12-25T20:36:07.699Z,12.39
2022-12-25T20:38:36.983Z,12.67
2022-12-25T20:43:54.991Z,12.60
2022-12-25T20:46:23.552Z,12.63
2022-12-25T20:48:53.198Z,12.56
2022-12-25T20:51:23.208Z,12.50
2022-12-25T20:53:51.832Z,12.57
2022-12-25T20:56:22.535Z,12.57
2022-12-25T20:58:54.310Z,12.39
2022-12-25T21:01:22.257Z,12.56
2022-12-25T21:03:50.222Z,12.58
2022-12-25T21:06:19.445Z,12.56
2022-12-25T21:08:48.149Z,12.58
2022-12-25T21:11:17.608Z,12.47
2022-12-25T21:13:46.730Z,12.60
2022-12-25T21:16:18.547Z,12.62
2022-12-25T21:18:46.885Z,12.64
2022-12-25T21:21:15.740Z,12.64
2022-12-25T21:23:45.565Z,12.62
2022-12-25T21:26:16.779Z,12.63
2022-12-25T21:28:44.875Z,12.65
2022-12-25T21:31:12.786Z,12.67
2022-12-25T21:33:51.950Z,12.68
2022-12-25T21:36:24.318Z,12.64
2022-12-25T21:38:58.732Z,12.56
2022-12-25T21:41:27.529Z,12.59
2022-12-25T21:43:56.173Z,12.71
2022-12-25T21:46:24.459Z,12.57
2022-12-25T21:48:52.352Z,12.68
2022-12-25T21:51:39.556Z,12.68
2022-12-25T21:54:09.699Z,12.64
2022-12-25T21:56:44.021Z,12.70
2022-12-25T21:59:14.811Z,12.66
2022-12-25T22:01:42.701Z,12.49
2022-12-25T22:04:12.824Z,12.66
2022-12-25T22:06:58.494Z,12.57
2022-12-25T22:09:27.747Z,12.68
2022-12-25T22:12:13.139Z,12.68
2022-12-25T22:14:57.870Z,12.74
2022-12-25T22:17:44.640Z,12.78
2022-12-25T22:20:15.281Z,12.76
2022-12-25T22:22:43.411Z,12.77
2022-12-25T22:25:13.711Z,12.79
2022-12-25T22:27:43.336Z,12.82
2022-12-25T22:30:13.809Z,12.81
2022-12-25T22:32:41.685Z,12.88
2022-12-25T22:35:12.479Z,12.88
2022-12-25T22:37:41.151Z,12.67
2022-12-25T22:40:12.786Z,12.92
2022-12-25T22:42:41.562Z,12.85
2022-12-25T22:45:10.807Z,12.78
2022-12-25T22:47:38.659Z,12.73
2022-12-25T22:50:07.205Z,12.88
2022-12-25T22:52:35.138Z,12.97
2022-12-25T22:55:02.939Z,12.88
2022-12-25T22:57:32.079Z,12.46
2022-12-25T22:59:59.913Z,12.89
2022-12-25T23:02:27.958Z,12.87
2022-12-25T23:04:55.841Z,12.87
2022-12-25T23:07:23.590Z,12.91
2022-12-25T23:09:53.071Z,12.93
2022-12-25T23:12:38.166Z,12.92
2022-12-25T23:15:08.600Z,12.98
2022-12-25T23:17:54.592Z,13.05
2022-12-25T23:20:39.761Z,13.17
2022-12-25T23:23:25.007Z,13.25
2022-12-25T23:26:11.260Z,13.09
2022-12-25T23:28:58.420Z,13.26
2022-12-25T23:31:31.478Z,13.24
2022-12-25T23:33:59.537Z,13.26
2022-12-25T23:36:28.093Z,13.22
2022-12-25T23:38:55.886Z,13.21
2022-12-25T23:41:23.705Z,13.20
2022-12-25T23:43:51.903Z,13.19
2022-12-25T23:46:20.142Z,13.17
2022-12-25T23:48:49.304Z,13.12
2022-12-25T23:51:17.987Z,13.07
2022-12-25T23:53:45.800Z,13.03
2022-12-25T23:56:13.611Z,12.95
2022-12-25T23:58:41.518Z,12.92
